Nearby METAR Reports

 

K1A5 - Macon/Franklin, North Carolina, USA
Distance from station: WSW 16mi, 25km
Updated: Sun, 18-Feb-2018 8:55pm EST
Overcast
Overcast
 Wind from ESE
Wind: ESE 3 mph , 6 km/h
Temperature: 55°F , 13°C
Dew Point: 43°F , 6°C
Humidity: 63%
Barometer: 30.32 inHg , 1026.8 hPa
Clouds: Overcast
Visibility: 10 miles , 16 km
Cloud details: Overcast 3400 ft
2018/02/19 01:55 K1A5 190155Z AUTO 12003KT 10SM OVC034 13/06 A3032 RMK AO2 T01260058
KAVL - Asheville, North Carolina, USA
Distance from station: ENE 36mi, 59km
Updated: Sun, 18-Feb-2018 8:54pm EST
Mostly cloudy
Mostly cloudy
 Wind from calm
Wind: Calm
Temperature: 52°F , 11°C
Dew Point: 39°F , 4°C
Humidity: 62%
Barometer: 30.34 inHg , 1027.4 hPa
Clouds: Mostly cloudy
Visibility: 10 miles , 16 km
Cloud details: Few Clouds 3300 ft
Partly cloudy 4200 ft
Mostly cloudy 12000 ft
2018/02/19 01:54 KAVL 190154Z 00000KT 10SM FEW033 SCT042 BKN120 11/04 A3034 RMK AO2 SLP271 T01060044
 
KRHP - Andrews, North Carolina, USA
Distance from station: WSW 40mi, 64km
Updated: Sun, 18-Feb-2018 8:55pm EST
Overcast
Overcast
 Wind from SSW
Wind: SSW 6 mph , 9 km/h
Temperature: 59°F , 15°C
Dew Point: 46°F , 8°C
Humidity: 63%
Barometer: 30.28 inHg , 1025.4 hPa
Clouds: Overcast
Visibility: 10 miles , 16 km
Cloud details: Overcast 3800 ft
2018/02/19 01:55 KRHP 190155Z AUTO 21005KT 10SM OVC038 15/08 A3028 RMK AO2 T01500080
KLQK - Pickens, South Carolina, USA
Distance from station: SE 42mi, 68km
Updated: Sun, 18-Feb-2018 8:55pm EST
Overcast
Overcast
 Wind from E
Wind: E 3 mph , 6 km/h
Temperature: 59°F , 15°C
Dew Point: 46°F , 8°C
Humidity: 63%
Barometer: 30.32 inHg , 1026.8 hPa
Clouds: Overcast
Visibility: 10 miles , 16 km
Cloud details: Overcast 4400 ft
2018/02/19 01:55 KLQK 190155Z AUTO 08003KT 10SM OVC044 15/08 A3032 RMK AO2 T01500076
 
KCEU - Clemson, South Carolina, USA
Distance from station: SSE 46mi, 75km
Updated: Sun, 18-Feb-2018 8:54pm EST
Overcast
Overcast
 Wind from calm
Wind: Calm
Temperature: 61°F , 16°C
Dew Point: 46°F , 8°C
Humidity: 59%
Barometer: 30.33 inHg , 1027.1 hPa
Clouds: Overcast
Visibility: 10 miles , 16 km
Cloud details: Overcast 3900 ft
2018/02/19 01:54 KCEU 190154Z AUTO 00000KT 10SM OVC039 16/08 A3033 RMK AO2 SLP268 T01560078
KTOC - Toccoa, Georgia, USA
Distance from station: S 49mi, 79km
Updated: Sun, 18-Feb-2018 8:55pm EST
Drizzle, Overcast
Drizzle, Overcast
 Wind from calm
Wind: Calm
Temperature: 61°F , 16°C
Dew Point: 54°F , 12°C
Humidity: 77%
Barometer: 30.31 inHg , 1026.4 hPa
Summary: Drizzle
Clouds: Overcast
Visibility: 10 miles , 16 km
Cloud details: Partly cloudy 3800 ft
Mostly cloudy 6500 ft
Overcast 8000 ft
2018/02/19 01:55 KTOC 190155Z AUTO 00000KT 10SM DZ SCT038 BKN065 OVC080 16/12 A3031 RMK AO2 T01590121